Schnellsuche:     vonnach     am:               Ankunft heute   Abflug heute   
Wetterdaten des Sylter Flughafens. Alle Angaben sind ohne Gewähr.



Datum: 2016-07-01 00:40 UTC
   
Windrichtung: 220°
Windgeschwindigkeit: 3 - 5 Kt.
QNH: 1009 hPa
Temperatur: 13 °C
Taupunkt: 13 °C
rel. Luftfeuchte: 99 %

METAR EDXW 301650Z 24008KT 190V260 CAVOK 16/11 Q1010 RMK ATIS UNI=

TAF ist fr heute noch nicht verfgbar.
 
Wettercam am Vorfeld 1:




Wolkenhöhen in den letzten 48 Stunden:






 


Im Jettempo nach Sylt!



airberlin

Zürich, Nürnberg, Stuttgart, München, Berlin/Tegel und Düsseldorf
Die airberlin fliegt vom 02. Juli bis zum 27. August 2017 nach Zürich, vom 02. Juli bis zum 08. Oktober 2016 nach Nürnberg, vom 01. Juli bis zum 30. August 2017 nach Stuttgart, vom 02. Juli bis zum 30. Oktober 2016 nach München, vom 02. Juli bis zum 30. Oktober 2016 nach Berlin/Tegel und vom 30. Juni bis zum 30. August 2017 nach Düsseldorf. Zur Seite der airberlin: www.airberlin.com

Lufthansa

München und Frankfurt/Main
Die Lufthansa fliegt vom 18. Juni bis zum 03. Oktober 2017 nach München und vom 04. Juni bis zum 21. Oktober 2017 nach Frankfurt/Main. Zur Seite der Lufthansa: www.lufthansa.de

Syltair

Hamburg
Die Syltair fliegt vom 24. März bis zum 03. Oktober 2016 nach Hamburg. Zur Seite der Syltair: www.syltair.de